Historyczne dane pomiarowe

Dodano dane terminowe – wersja testowa.

Dane z okresu 1951-2019

Wersja bazy: 1.34 [2019-03-16, lista zmian], aktualizacja planowana na 2019-04-15

Dane meteo z obszaru Polski uzyskane na podstawie danych udostępnionych przez Instytut Meteorologii i Gospodarki Wodnej – Państwowy Instytut Badawczy.

 

Wybierz Datę:    

       

TemperaturaWilgotnośćWiatrCiśnienieOpadyŚniegCzas trwania zjawisk
 Stacja t tx tn tng RH VA  wxwx mslp ppp RRR   cm mm wxwxwxwxwxwxwx
1994-08-14 14.6 19.4 11.5- 74.0- 2.7 2.3---- 0.3------------
1994-08-13 16.7 23.3 13.8- 85.8- 7.3 2.0---- 5.5------------
1994-08-12 16.9 21.4 15.0- 88.0- 8.0 2.0---- 0.0------------
1994-08-11 17.5 19.6 14.6- 87.8- 8.0 1.7---- 6.8------------
1994-08-10 18.2 26.6 14.9- 79.0- 3.0 1.3---- 0.0------------
1994-08-09 18.9 24.8 14.2- 90.0- 7.7 1.3---- 34.6------------
1994-08-08 19.8 27.2 16.8- 81.0- 5.3 1.0---- 1.9------------
1994-08-07 23.5 30.2 16.3- 72.3- 2.7 0.7---- 7.5------------
1994-08-06 24.1 33.1 12.0- 59.8- 0.0 0.0---- 0.0------------
1994-08-05 23.4 31.1 14.7- 62.0- 1.0 1.0---- 0.0------------
1994-08-04 24.1 31.0 16.4- 72.3- 2.7 2.7---- 0.0------------
1994-08-03 24.2 31.5 15.9- 69.5- 1.7 1.3---- 2.0------------
1994-08-02 24.8 33.0 15.6- 66.3- 4.3 1.0---- 0.0------------
1994-08-01 26.2 35.2 15.2- 61.8- 2.0 0.3---- 0.0------------
1994-07-31 25.9 34.2 15.2- 64.3- 0.7 0.7---- 0.0------------
1994-07-30 25.4 34.4 14.4- 57.5- 1.0 0.7---- 0.0------------
1994-07-29 25.2 33.8 12.9- 54.0- 0.7 0.3---- 0.0------------
1994-07-28 24.8 33.3 13.6- 61.0- 0.7 0.7---- 0.0------------
1994-07-27 23.5 33.5 13.5- 61.0- 2.0 0.7---- 0.0------------
1994-07-26 23.6 32.5 12.4- 61.3- 1.0 1.0---- 0.0------------
1994-07-25 22.8 31.5 11.9- 47.0- 1.0 0.7---- 0.0------------
1994-07-24 21.6 30.1 10.9- 61.0- 1.3 0.7---- 0.0------------
1994-07-23 21.2 29.0 12.0- 65.3- 2.0 1.0---- 0.0------------
1994-07-22 20.3 27.7 11.8- 61.3- 0.0 2.7---- 0.0------------
1994-07-21 20.0 26.5 9.6- 64.0- 0.0 1.0---- 0.0------------
1994-07-20 18.5 24.2 9.8- 62.5- 1.0 1.0---- 0.0------------
1994-07-19 18.3 24.2 12.3- 81.0- 3.3 1.7---- 0.0------------
1994-07-18 19.6 26.2 16.5- 89.0- 4.7 2.3---- 0.6------------
1994-07-17 21.4 28.6 14.9- 86.5- 7.7 0.7---- 18.1------------
1994-07-16 22.9 31.2 12.6- 66.5- 2.3 1.3---- 0.0------------
1994-07-15 22.3 28.4 14.0- 71.0- 2.0 1.0---- 0.0------------
1994-07-14 20.0 29.8 13.1- 78.5- 5.0 1.7---- 0.6------------
1994-07-13 22.2 29.1 13.9- 61.3- 1.3 1.7---- 0.0------------
1994-07-12 21.0 27.7 14.6- 72.0- 4.0 3.0---- 0.0------------
1994-07-11 18.1 25.0 12.7- 77.5- 4.7 2.3---- 0.0------------
1994-07-10 15.9 23.8 11.8- 87.0- 4.0 1.3---- 4.1------------
1994-07-09 14.2 17.4 11.9- 85.8- 8.0 1.0---- 8.7------------
1994-07-08 17.8 22.5 15.0- 73.5- 5.3 2.3---- 0.0------------
1994-07-07 18.1 27.9 8.5- 66.8- 3.7 1.3---- 1.2------------
1994-07-06 18.7 25.4 7.9- 66.0- 2.7 1.0---- 0.0------------
1994-07-05 21.0 28.4 10.2- 65.5- 4.0 1.7---- 0.3------------
1994-07-04 20.4 27.9 8.6- 63.3- 1.3 1.0---- 0.0------------
1994-07-03 18.9 25.8 8.1- 69.5- 0.0 1.0---- 0.0------------
1994-07-02 17.9 24.0 9.6- 69.0- 0.0 1.3---- 0.0------------
1994-07-01 18.7 25.6 12.9- 68.0- 1.7 1.7---- 0.0------------
1994-06-30 19.3 23.9 15.0- 85.0- 5.0 1.3---- 6.0------------
1994-06-29 23.5 31.0 15.6- 68.0- 0.0 1.0---- 0.0------------
1994-06-28 23.7 31.2 17.3- 67.8- 0.3 1.7---- 0.0------------
1994-06-27 23.5 33.7 13.8- 75.8- 2.0 0.3---- 0.0------------
1994-06-26 19.6 30.2 8.5- 66.0- 0.0 0.7---- 0.0------------
1994-06-25 14.8 23.6 3.1- 68.0- 0.0 0.7---- 0.0------------
1994-06-24 14.4 21.9 6.0- 61.5- 1.0 2.7---- 0.0------------
1994-06-23 17.5 24.5 16.0- 60.0- 1.0 4.3---- 0.0------------
1994-06-22 17.1 28.0 6.0- 76.8- 3.0 1.3---- 0.0------------
1994-06-21 16.5 23.3 5.0- 69.0- 1.0 1.0---- 0.0------------
1994-06-20 15.9 23.9 9.4- 74.0- 4.7 2.7---- 0.0------------
1994-06-19 16.6 24.9 10.8- 78.3- 5.3 1.3---- 0.0------------
1994-06-18 12.0 20.5 1.7- 77.5- 4.7 1.3---- 3.7------------
1994-06-17 11.4 17.3 8.6- 76.5- 4.7 2.7---- 0.0------------
1994-06-16 12.0 18.0 4.3- 76.5- 7.7 2.0---- 6.4------------
311.3 ms

 

Źródłem pochodzenia danych jest Instytut Meteorologii i Gospodarki Wodnej – Państwowy Instytut Badawczy. Dane Instytutu Meteorologii i Gospodarki Wodnej – Państwowego Instytutu Badawczego zostały przetworzone.

Dane źródłowe można odnaleźć na stronie https://dane.imgw.pl